sensor_id;sensor_type;location;lat;lon;timestamp;P1;durP1;ratioP1;P2;durP2;ratioP2
28848;SDS011;15981;43.292;-2.888;2023-01-10T00:02:19;12.63;;;6.43;;
28848;SDS011;15981;43.292;-2.888;2023-01-10T00:04:44;10.27;;;5.57;;
28848;SDS011;15981;43.292;-2.888;2023-01-10T00:07:10;12.13;;;6.28;;
28848;SDS011;15981;43.292;-2.888;2023-01-10T00:09:36;11.73;;;6.28;;
28848;SDS011;15981;43.292;-2.888;2023-01-10T00:12:01;12.77;;;5.90;;
28848;SDS011;15981;43.292;-2.888;2023-01-10T00:14:45;11.80;;;5.63;;
28848;SDS011;15981;43.292;-2.888;2023-01-10T00:17:11;11.95;;;5.93;;
28848;SDS011;15981;43.292;-2.888;2023-01-10T00:19:37;10.43;;;5.57;;
28848;SDS011;15981;43.292;-2.888;2023-01-10T00:22:03;11.63;;;5.90;;
28848;SDS011;15981;43.292;-2.888;2023-01-10T00:24:32;12.90;;;6.43;;
28848;SDS011;15981;43.292;-2.888;2023-01-10T00:26:58;11.15;;;5.82;;
28848;SDS011;15981;43.292;-2.888;2023-01-10T00:29:26;12.07;;;5.45;;
28848;SDS011;15981;43.292;-2.888;2023-01-10T00:31:53;10.77;;;5.90;;
28848;SDS011;15981;43.292;-2.888;2023-01-10T00:34:19;11.88;;;5.78;;
28848;SDS011;15981;43.292;-2.888;2023-01-10T00:36:45;11.00;;;5.93;;
28848;SDS011;15981;43.292;-2.888;2023-01-10T00:39:12;10.63;;;5.85;;
28848;SDS011;15981;43.292;-2.888;2023-01-10T00:41:39;10.80;;;5.47;;
28848;SDS011;15981;43.292;-2.888;2023-01-10T00:44:23;11.35;;;5.63;;
28848;SDS011;15981;43.292;-2.888;2023-01-10T00:46:49;10.32;;;5.72;;
28848;SDS011;15981;43.292;-2.888;2023-01-10T00:49:14;11.02;;;5.22;;
28848;SDS011;15981;43.292;-2.888;2023-01-10T00:51:41;9.57;;;5.10;;
28848;SDS011;15981;43.292;-2.888;2023-01-10T00:54:10;7.70;;;5.40;;
28848;SDS011;15981;43.292;-2.888;2023-01-10T00:56:36;9.40;;;5.60;;
28848;SDS011;15981;43.292;-2.888;2023-01-10T00:59:02;9.77;;;5.57;;
28848;SDS011;15981;43.292;-2.888;2023-01-10T01:01:28;8.23;;;5.07;;
28848;SDS011;15981;43.292;-2.888;2023-01-10T01:03:53;12.02;;;5.70;;
28848;SDS011;15981;43.292;-2.888;2023-01-10T01:06:19;7.53;;;4.93;;
28848;SDS011;15981;43.292;-2.888;2023-01-10T01:08:45;8.73;;;5.43;;
28848;SDS011;15981;43.292;-2.888;2023-01-10T01:11:11;10.20;;;5.05;;
28848;SDS011;15981;43.292;-2.888;2023-01-10T01:13:37;9.30;;;5.55;;
28848;SDS011;15981;43.292;-2.888;2023-01-10T01:16:02;12.10;;;5.50;;
28848;SDS011;15981;43.292;-2.888;2023-01-10T01:18:28;8.15;;;4.88;;
28848;SDS011;15981;43.292;-2.888;2023-01-10T01:20:55;9.27;;;5.13;;
28848;SDS011;15981;43.292;-2.888;2023-01-10T01:23:21;11.20;;;5.82;;
28848;SDS011;15981;43.292;-2.888;2023-01-10T01:25:51;9.60;;;5.38;;
28848;SDS011;15981;43.292;-2.888;2023-01-10T01:28:17;8.52;;;4.93;;
28848;SDS011;15981;43.292;-2.888;2023-01-10T01:30:43;8.48;;;4.68;;
28848;SDS011;15981;43.292;-2.888;2023-01-10T01:33:08;8.38;;;4.70;;
28848;SDS011;15981;43.292;-2.888;2023-01-10T01:35:34;10.32;;;5.15;;
28848;SDS011;15981;43.292;-2.888;2023-01-10T01:38:00;11.55;;;4.90;;
28848;SDS011;15981;43.292;-2.888;2023-01-10T01:40:26;8.48;;;5.00;;
28848;SDS011;15981;43.292;-2.888;2023-01-10T01:42:51;7.13;;;4.68;;
28848;SDS011;15981;43.292;-2.888;2023-01-10T01:52:43;7.80;;;4.60;;
28848;SDS011;15981;43.292;-2.888;2023-01-10T01:55:09;7.78;;;4.78;;
28848;SDS011;15981;43.292;-2.888;2023-01-10T01:57:35;7.80;;;4.90;;
28848;SDS011;15981;43.292;-2.888;2023-01-10T02:00:02;8.50;;;4.78;;
28848;SDS011;15981;43.292;-2.888;2023-01-10T02:02:30;9.82;;;4.30;;
28848;SDS011;15981;43.292;-2.888;2023-01-10T02:05:01;6.93;;;4.38;;
28848;SDS011;15981;43.292;-2.888;2023-01-10T02:07:29;9.35;;;4.93;;
28848;SDS011;15981;43.292;-2.888;2023-01-10T02:10:04;7.25;;;4.93;;
28848;SDS011;15981;43.292;-2.888;2023-01-10T02:12:31;7.68;;;4.30;;
28848;SDS011;15981;43.292;-2.888;2023-01-10T02:14:57;8.40;;;4.72;;
28848;SDS011;15981;43.292;-2.888;2023-01-10T02:17:23;7.35;;;4.63;;
28848;SDS011;15981;43.292;-2.888;2023-01-10T02:19:53;8.25;;;4.60;;
28848;SDS011;15981;43.292;-2.888;2023-01-10T02:22:27;8.40;;;5.13;;
28848;SDS011;15981;43.292;-2.888;2023-01-10T02:27:49;7.32;;;4.78;;
28848;SDS011;15981;43.292;-2.888;2023-01-10T02:33:06;9.02;;;4.82;;
28848;SDS011;15981;43.292;-2.888;2023-01-10T02:38:17;10.52;;;4.70;;
28848;SDS011;15981;43.292;-2.888;2023-01-10T02:41:47;7.20;;;4.28;;
28848;SDS011;15981;43.292;-2.888;2023-01-10T02:43:42;7.63;;;4.35;;
28848;SDS011;15981;43.292;-2.888;2023-01-10T02:46:20;9.70;;;4.97;;
28848;SDS011;15981;43.292;-2.888;2023-01-10T02:48:52;8.50;;;4.80;;
28848;SDS011;15981;43.292;-2.888;2023-01-10T02:51:20;10.20;;;4.90;;
28848;SDS011;15981;43.292;-2.888;2023-01-10T02:53:47;7.70;;;4.85;;
28848;SDS011;15981;43.292;-2.888;2023-01-10T03:06:54;10.23;;;4.80;;
28848;SDS011;15981;43.292;-2.888;2023-01-10T03:11:46;10.02;;;4.72;;
28848;SDS011;15981;43.292;-2.888;2023-01-10T03:14:24;7.97;;;4.50;;
28848;SDS011;15981;43.292;-2.888;2023-01-10T03:17:01;7.60;;;5.05;;
28848;SDS011;15981;43.292;-2.888;2023-01-10T03:19:30;10.35;;;5.03;;
28848;SDS011;15981;43.292;-2.888;2023-01-10T03:21:58;7.35;;;4.93;;
28848;SDS011;15981;43.292;-2.888;2023-01-10T03:24:27;8.50;;;5.10;;
28848;SDS011;15981;43.292;-2.888;2023-01-10T03:27:00;10.02;;;5.25;;
28848;SDS011;15981;43.292;-2.888;2023-01-10T03:29:30;9.27;;;5.10;;
28848;SDS011;15981;43.292;-2.888;2023-01-10T03:31:59;9.13;;;5.07;;
28848;SDS011;15981;43.292;-2.888;2023-01-10T03:34:27;9.55;;;5.32;;
28848;SDS011;15981;43.292;-2.888;2023-01-10T03:36:58;9.13;;;4.82;;
28848;SDS011;15981;43.292;-2.888;2023-01-10T03:39:48;9.68;;;5.43;;
28848;SDS011;15981;43.292;-2.888;2023-01-10T03:42:19;10.13;;;5.00;;
28848;SDS011;15981;43.292;-2.888;2023-01-10T03:47:21;10.25;;;5.55;;
28848;SDS011;15981;43.292;-2.888;2023-01-10T03:49:49;7.50;;;4.68;;
28848;SDS011;15981;43.292;-2.888;2023-01-10T03:52:18;9.45;;;5.70;;
28848;SDS011;15981;43.292;-2.888;2023-01-10T03:54:45;8.25;;;4.90;;
28848;SDS011;15981;43.292;-2.888;2023-01-10T03:57:14;7.88;;;4.82;;
28848;SDS011;15981;43.292;-2.888;2023-01-10T03:59:41;9.68;;;4.88;;
28848;SDS011;15981;43.292;-2.888;2023-01-10T04:02:07;8.90;;;5.05;;
28848;SDS011;15981;43.292;-2.888;2023-01-10T04:04:32;8.50;;;5.15;;
28848;SDS011;15981;43.292;-2.888;2023-01-10T04:06:58;7.93;;;4.97;;
28848;SDS011;15981;43.292;-2.888;2023-01-10T04:09:24;9.13;;;5.38;;
28848;SDS011;15981;43.292;-2.888;2023-01-10T04:11:50;10.00;;;5.63;;
28848;SDS011;15981;43.292;-2.888;2023-01-10T04:14:15;9.80;;;5.43;;
28848;SDS011;15981;43.292;-2.888;2023-01-10T04:16:41;9.00;;;4.95;;
28848;SDS011;15981;43.292;-2.888;2023-01-10T04:19:07;9.07;;;4.95;;
28848;SDS011;15981;43.292;-2.888;2023-01-10T04:21:32;8.77;;;5.55;;
28848;SDS011;15981;43.292;-2.888;2023-01-10T04:23:58;9.23;;;5.05;;
28848;SDS011;15981;43.292;-2.888;2023-01-10T04:26:24;10.38;;;5.50;;
28848;SDS011;15981;43.292;-2.888;2023-01-10T04:28:50;7.15;;;4.95;;
28848;SDS011;15981;43.292;-2.888;2023-01-10T04:31:15;10.68;;;5.15;;
28848;SDS011;15981;43.292;-2.888;2023-01-10T04:33:41;9.18;;;4.65;;
28848;SDS011;15981;43.292;-2.888;2023-01-10T04:36:07;9.52;;;4.82;;
28848;SDS011;15981;43.292;-2.888;2023-01-10T04:38:33;7.95;;;5.07;;
28848;SDS011;15981;43.292;-2.888;2023-01-10T04:40:58;8.70;;;4.93;;
28848;SDS011;15981;43.292;-2.888;2023-01-10T04:43:24;8.60;;;4.85;;
28848;SDS011;15981;43.292;-2.888;2023-01-10T04:45:50;7.55;;;4.80;;
28848;SDS011;15981;43.292;-2.888;2023-01-10T04:48:16;7.55;;;4.68;;
28848;SDS011;15981;43.292;-2.888;2023-01-10T04:50:42;7.13;;;4.47;;
28848;SDS011;15981;43.292;-2.888;2023-01-10T04:53:08;7.22;;;4.93;;
28848;SDS011;15981;43.292;-2.888;2023-01-10T04:55:33;9.35;;;5.00;;
28848;SDS011;15981;43.292;-2.888;2023-01-10T04:58:00;6.85;;;4.28;;
28848;SDS011;15981;43.292;-2.888;2023-01-10T05:00:26;8.88;;;4.78;;
28848;SDS011;15981;43.292;-2.888;2023-01-10T05:02:55;7.85;;;4.75;;
28848;SDS011;15981;43.292;-2.888;2023-01-10T05:05:21;8.43;;;4.57;;
28848;SDS011;15981;43.292;-2.888;2023-01-10T05:07:46;7.60;;;4.63;;
28848;SDS011;15981;43.292;-2.888;2023-01-10T05:10:12;9.18;;;4.60;;
28848;SDS011;15981;43.292;-2.888;2023-01-10T05:12:38;10.55;;;4.88;;
28848;SDS011;15981;43.292;-2.888;2023-01-10T05:15:04;8.32;;;4.30;;
28848;SDS011;15981;43.292;-2.888;2023-01-10T05:17:30;10.07;;;5.05;;
28848;SDS011;15981;43.292;-2.888;2023-01-10T05:19:56;6.45;;;4.32;;
28848;SDS011;15981;43.292;-2.888;2023-01-10T05:22:22;7.75;;;4.40;;
28848;SDS011;15981;43.292;-2.888;2023-01-10T05:24:47;8.32;;;4.80;;
28848;SDS011;15981;43.292;-2.888;2023-01-10T05:27:14;7.78;;;4.63;;
28848;SDS011;15981;43.292;-2.888;2023-01-10T05:29:40;8.10;;;4.65;;
28848;SDS011;15981;43.292;-2.888;2023-01-10T05:32:06;7.90;;;4.57;;
28848;SDS011;15981;43.292;-2.888;2023-01-10T05:34:32;7.50;;;4.55;;
28848;SDS011;15981;43.292;-2.888;2023-01-10T05:36:57;9.75;;;4.78;;
28848;SDS011;15981;43.292;-2.888;2023-01-10T05:39:23;7.63;;;4.25;;
28848;SDS011;15981;43.292;-2.888;2023-01-10T05:41:49;9.20;;;5.13;;
28848;SDS011;15981;43.292;-2.888;2023-01-10T05:44:14;7.20;;;4.32;;
28848;SDS011;15981;43.292;-2.888;2023-01-10T05:46:40;6.93;;;4.70;;
28848;SDS011;15981;43.292;-2.888;2023-01-10T05:49:06;7.35;;;4.22;;
28848;SDS011;15981;43.292;-2.888;2023-01-10T05:51:32;7.03;;;4.40;;
28848;SDS011;15981;43.292;-2.888;2023-01-10T05:53:58;6.68;;;4.40;;
28848;SDS011;15981;43.292;-2.888;2023-01-10T05:56:24;6.85;;;4.45;;
28848;SDS011;15981;43.292;-2.888;2023-01-10T05:58:49;7.38;;;4.40;;
28848;SDS011;15981;43.292;-2.888;2023-01-10T06:01:15;7.93;;;4.75;;
28848;SDS011;15981;43.292;-2.888;2023-01-10T06:03:41;6.13;;;4.22;;
28848;SDS011;15981;43.292;-2.888;2023-01-10T06:06:07;7.47;;;4.20;;
28848;SDS011;15981;43.292;-2.888;2023-01-10T06:08:33;6.57;;;3.88;;
28848;SDS011;15981;43.292;-2.888;2023-01-10T06:11:04;6.97;;;4.25;;
28848;SDS011;15981;43.292;-2.888;2023-01-10T06:13:30;6.70;;;4.25;;
28848;SDS011;15981;43.292;-2.888;2023-01-10T06:15:56;6.60;;;4.15;;
28848;SDS011;15981;43.292;-2.888;2023-01-10T06:18:21;6.88;;;4.05;;
28848;SDS011;15981;43.292;-2.888;2023-01-10T06:20:47;7.00;;;4.28;;
28848;SDS011;15981;43.292;-2.888;2023-01-10T06:23:13;8.07;;;4.28;;
28848;SDS011;15981;43.292;-2.888;2023-01-10T06:25:39;7.88;;;4.25;;
28848;SDS011;15981;43.292;-2.888;2023-01-10T06:28:09;5.80;;;4.10;;
28848;SDS011;15981;43.292;-2.888;2023-01-10T06:30:35;5.47;;;3.78;;
28848;SDS011;15981;43.292;-2.888;2023-01-10T06:33:01;6.40;;;4.15;;
28848;SDS011;15981;43.292;-2.888;2023-01-10T06:35:27;6.20;;;4.10;;
28848;SDS011;15981;43.292;-2.888;2023-01-10T06:37:53;6.13;;;3.83;;
28848;SDS011;15981;43.292;-2.888;2023-01-10T06:40:19;6.28;;;4.13;;
28848;SDS011;15981;43.292;-2.888;2023-01-10T06:42:45;6.63;;;3.92;;
28848;SDS011;15981;43.292;-2.888;2023-01-10T06:45:10;5.22;;;3.70;;
28848;SDS011;15981;43.292;-2.888;2023-01-10T06:47:36;5.03;;;3.67;;
28848;SDS011;15981;43.292;-2.888;2023-01-10T06:50:03;7.75;;;4.05;;
28848;SDS011;15981;43.292;-2.888;2023-01-10T06:52:29;6.32;;;4.13;;
28848;SDS011;15981;43.292;-2.888;2023-01-10T06:54:55;5.45;;;3.65;;
28848;SDS011;15981;43.292;-2.888;2023-01-10T06:57:20;6.38;;;3.78;;
28848;SDS011;15981;43.292;-2.888;2023-01-10T06:59:46;7.15;;;3.88;;
28848;SDS011;15981;43.292;-2.888;2023-01-10T07:02:12;8.40;;;4.18;;
28848;SDS011;15981;43.292;-2.888;2023-01-10T07:04:38;10.00;;;4.93;;
28848;SDS011;15981;43.292;-2.888;2023-01-10T07:07:04;14.25;;;5.60;;
28848;SDS011;15981;43.292;-2.888;2023-01-10T07:09:29;8.27;;;4.97;;
28848;SDS011;15981;43.292;-2.888;2023-01-10T07:11:55;7.95;;;4.88;;
28848;SDS011;15981;43.292;-2.888;2023-01-10T07:14:21;9.70;;;4.72;;
28848;SDS011;15981;43.292;-2.888;2023-01-10T07:16:47;10.63;;;4.47;;
28848;SDS011;15981;43.292;-2.888;2023-01-10T07:19:12;8.63;;;4.43;;
28848;SDS011;15981;43.292;-2.888;2023-01-10T07:21:38;7.07;;;4.97;;
28848;SDS011;15981;43.292;-2.888;2023-01-10T07:24:04;8.18;;;4.43;;
28848;SDS011;15981;43.292;-2.888;2023-01-10T07:26:30;6.85;;;4.25;;
28848;SDS011;15981;43.292;-2.888;2023-01-10T07:28:56;9.45;;;4.45;;
28848;SDS011;15981;43.292;-2.888;2023-01-10T07:31:21;7.13;;;4.18;;
28848;SDS011;15981;43.292;-2.888;2023-01-10T07:33:51;6.60;;;3.90;;
28848;SDS011;15981;43.292;-2.888;2023-01-10T07:36:17;6.70;;;4.15;;
28848;SDS011;15981;43.292;-2.888;2023-01-10T07:38:43;7.28;;;4.63;;
28848;SDS011;15981;43.292;-2.888;2023-01-10T07:41:09;8.43;;;4.68;;
28848;SDS011;15981;43.292;-2.888;2023-01-10T07:43:35;8.32;;;4.40;;
28848;SDS011;15981;43.292;-2.888;2023-01-10T07:46:01;9.15;;;4.40;;
28848;SDS011;15981;43.292;-2.888;2023-01-10T07:48:27;7.40;;;4.03;;
28848;SDS011;15981;43.292;-2.888;2023-01-10T07:50:56;7.50;;;4.00;;
28848;SDS011;15981;43.292;-2.888;2023-01-10T07:53:22;8.75;;;4.47;;
28848;SDS011;15981;43.292;-2.888;2023-01-10T07:55:48;6.70;;;4.38;;
28848;SDS011;15981;43.292;-2.888;2023-01-10T07:58:14;6.55;;;4.05;;
28848;SDS011;15981;43.292;-2.888;2023-01-10T08:00:40;6.97;;;3.97;;
28848;SDS011;15981;43.292;-2.888;2023-01-10T08:03:06;7.32;;;3.95;;
28848;SDS011;15981;43.292;-2.888;2023-01-10T08:05:32;7.05;;;3.70;;
28848;SDS011;15981;43.292;-2.888;2023-01-10T08:08:02;7.38;;;4.10;;
28848;SDS011;15981;43.292;-2.888;2023-01-10T08:10:28;6.05;;;3.90;;
28848;SDS011;15981;43.292;-2.888;2023-01-10T08:12:54;5.60;;;3.88;;
28848;SDS011;15981;43.292;-2.888;2023-01-10T08:15:20;7.18;;;3.55;;
28848;SDS011;15981;43.292;-2.888;2023-01-10T08:17:46;6.60;;;3.83;;
28848;SDS011;15981;43.292;-2.888;2023-01-10T08:20:11;5.10;;;3.25;;
28848;SDS011;15981;43.292;-2.888;2023-01-10T08:22:37;10.30;;;4.75;;
28848;SDS011;15981;43.292;-2.888;2023-01-10T08:25:03;6.05;;;3.60;;
28848;SDS011;15981;43.292;-2.888;2023-01-10T08:27:29;6.40;;;3.90;;
28848;SDS011;15981;43.292;-2.888;2023-01-10T08:29:55;6.13;;;3.75;;
28848;SDS011;15981;43.292;-2.888;2023-01-10T08:32:20;5.25;;;3.50;;
28848;SDS011;15981;43.292;-2.888;2023-01-10T08:34:46;6.70;;;3.55;;
28848;SDS011;15981;43.292;-2.888;2023-01-10T08:37:12;8.57;;;4.88;;
28848;SDS011;15981;43.292;-2.888;2023-01-10T08:39:38;10.20;;;4.90;;
28848;SDS011;15981;43.292;-2.888;2023-01-10T08:42:04;12.30;;;6.40;;
28848;SDS011;15981;43.292;-2.888;2023-01-10T08:44:30;12.27;;;7.53;;
28848;SDS011;15981;43.292;-2.888;2023-01-10T08:46:56;12.52;;;7.95;;
28848;SDS011;15981;43.292;-2.888;2023-01-10T08:49:22;13.43;;;7.85;;
28848;SDS011;15981;43.292;-2.888;2023-01-10T08:51:48;10.77;;;6.95;;
28848;SDS011;15981;43.292;-2.888;2023-01-10T08:54:14;13.35;;;7.05;;
28848;SDS011;15981;43.292;-2.888;2023-01-10T08:56:39;10.60;;;6.82;;
28848;SDS011;15981;43.292;-2.888;2023-01-10T08:59:06;9.88;;;5.97;;
28848;SDS011;15981;43.292;-2.888;2023-01-10T09:01:31;10.73;;;5.85;;
28848;SDS011;15981;43.292;-2.888;2023-01-10T09:03:57;8.23;;;5.38;;
28848;SDS011;15981;43.292;-2.888;2023-01-10T09:06:24;8.07;;;5.38;;
28848;SDS011;15981;43.292;-2.888;2023-01-10T09:08:49;7.63;;;5.10;;
28848;SDS011;15981;43.292;-2.888;2023-01-10T09:11:15;7.38;;;4.82;;
28848;SDS011;15981;43.292;-2.888;2023-01-10T09:13:41;7.10;;;5.03;;
28848;SDS011;15981;43.292;-2.888;2023-01-10T09:16:07;11.15;;;4.45;;
28848;SDS011;15981;43.292;-2.888;2023-01-10T09:18:33;7.82;;;4.30;;
28848;SDS011;15981;43.292;-2.888;2023-01-10T09:20:59;8.27;;;4.30;;
28848;SDS011;15981;43.292;-2.888;2023-01-10T09:23:25;7.65;;;4.13;;
28848;SDS011;15981;43.292;-2.888;2023-01-10T09:25:52;8.15;;;4.15;;
28848;SDS011;15981;43.292;-2.888;2023-01-10T09:28:18;6.97;;;3.92;;
28848;SDS011;15981;43.292;-2.888;2023-01-10T09:30:44;9.10;;;4.10;;
28848;SDS011;15981;43.292;-2.888;2023-01-10T09:33:10;11.80;;;4.20;;
28848;SDS011;15981;43.292;-2.888;2023-01-10T09:35:37;9.18;;;3.83;;
28848;SDS011;15981;43.292;-2.888;2023-01-10T09:38:04;8.05;;;4.43;;
28848;SDS011;15981;43.292;-2.888;2023-01-10T09:40:32;7.78;;;4.00;;
28848;SDS011;15981;43.292;-2.888;2023-01-10T09:45:52;7.75;;;4.22;;
28848;SDS011;15981;43.292;-2.888;2023-01-10T09:53:19;22.27;;;7.43;;
28848;SDS011;15981;43.292;-2.888;2023-01-10T09:55:48;22.00;;;7.20;;
28848;SDS011;15981;43.292;-2.888;2023-01-10T09:58:17;23.27;;;8.35;;
28848;SDS011;15981;43.292;-2.888;2023-01-10T10:00:57;31.23;;;10.18;;
28848;SDS011;15981;43.292;-2.888;2023-01-10T10:03:38;53.83;;;12.60;;
28848;SDS011;15981;43.292;-2.888;2023-01-10T10:06:06;39.45;;;11.02;;
28848;SDS011;15981;43.292;-2.888;2023-01-10T10:08:34;40.80;;;10.18;;
28848;SDS011;15981;43.292;-2.888;2023-01-10T10:11:05;29.45;;;8.32;;
28848;SDS011;15981;43.292;-2.888;2023-01-10T10:21:27;26.23;;;7.22;;
28848;SDS011;15981;43.292;-2.888;2023-01-10T10:24:02;22.58;;;7.10;;
28848;SDS011;15981;43.292;-2.888;2023-01-10T10:26:34;19.88;;;6.63;;
28848;SDS011;15981;43.292;-2.888;2023-01-10T10:31:52;20.58;;;5.72;;
28848;SDS011;15981;43.292;-2.888;2023-01-10T10:34:23;15.27;;;5.60;;
28848;SDS011;15981;43.292;-2.888;2023-01-10T10:36:50;14.65;;;5.68;;
28848;SDS011;15981;43.292;-2.888;2023-01-10T10:39:20;17.58;;;6.20;;
28848;SDS011;15981;43.292;-2.888;2023-01-10T10:41:47;16.02;;;4.95;;
28848;SDS011;15981;43.292;-2.888;2023-01-10T10:46:56;15.05;;;4.68;;
28848;SDS011;15981;43.292;-2.888;2023-01-10T10:49:34;11.02;;;4.60;;
28848;SDS011;15981;43.292;-2.888;2023-01-10T10:52:02;14.90;;;5.10;;
28848;SDS011;15981;43.292;-2.888;2023-01-10T10:54:30;15.77;;;5.70;;
28848;SDS011;15981;43.292;-2.888;2023-01-10T10:56:57;15.00;;;5.22;;
28848;SDS011;15981;43.292;-2.888;2023-01-10T10:59:23;14.05;;;5.43;;
28848;SDS011;15981;43.292;-2.888;2023-01-10T11:01:49;15.13;;;5.72;;
28848;SDS011;15981;43.292;-2.888;2023-01-10T11:04:18;14.52;;;5.65;;
28848;SDS011;15981;43.292;-2.888;2023-01-10T11:06:44;10.60;;;4.72;;
28848;SDS011;15981;43.292;-2.888;2023-01-10T11:09:17;11.50;;;5.25;;
28848;SDS011;15981;43.292;-2.888;2023-01-10T11:12:13;13.30;;;5.10;;
28848;SDS011;15981;43.292;-2.888;2023-01-10T11:14:43;11.63;;;4.65;;
28848;SDS011;15981;43.292;-2.888;2023-01-10T11:17:20;21.80;;;5.03;;
28848;SDS011;15981;43.292;-2.888;2023-01-10T11:19:57;16.05;;;4.70;;
28848;SDS011;15981;43.292;-2.888;2023-01-10T11:22:23;13.80;;;4.80;;
28848;SDS011;15981;43.292;-2.888;2023-01-10T11:24:53;13.65;;;4.90;;
28848;SDS011;15981;43.292;-2.888;2023-01-10T11:27:22;10.05;;;4.80;;
28848;SDS011;15981;43.292;-2.888;2023-01-10T11:29:49;11.45;;;4.30;;
28848;SDS011;15981;43.292;-2.888;2023-01-10T11:32:16;13.07;;;5.05;;
28848;SDS011;15981;43.292;-2.888;2023-01-10T11:34:55;11.02;;;4.53;;
28848;SDS011;15981;43.292;-2.888;2023-01-10T11:37:27;12.93;;;4.82;;
28848;SDS011;15981;43.292;-2.888;2023-01-10T11:42:36;11.05;;;3.47;;
28848;SDS011;15981;43.292;-2.888;2023-01-10T11:47:44;8.85;;;3.80;;
28848;SDS011;15981;43.292;-2.888;2023-01-10T11:50:11;7.80;;;3.65;;
28848;SDS011;15981;43.292;-2.888;2023-01-10T11:52:41;8.98;;;3.63;;
28848;SDS011;15981;43.292;-2.888;2023-01-10T11:55:07;9.55;;;4.07;;
28848;SDS011;15981;43.292;-2.888;2023-01-10T11:57:33;15.57;;;4.00;;
28848;SDS011;15981;43.292;-2.888;2023-01-10T12:00:03;10.20;;;4.13;;
28848;SDS011;15981;43.292;-2.888;2023-01-10T12:04:56;9.75;;;3.80;;
28848;SDS011;15981;43.292;-2.888;2023-01-10T12:07:23;8.20;;;3.80;;
28848;SDS011;15981;43.292;-2.888;2023-01-10T12:09:56;6.68;;;3.47;;
28848;SDS011;15981;43.292;-2.888;2023-01-10T12:12:23;8.57;;;3.45;;
28848;SDS011;15981;43.292;-2.888;2023-01-10T12:14:50;10.13;;;3.58;;
28848;SDS011;15981;43.292;-2.888;2023-01-10T12:17:30;8.55;;;3.70;;
28848;SDS011;15981;43.292;-2.888;2023-01-10T12:19:59;6.80;;;3.22;;
28848;SDS011;15981;43.292;-2.888;2023-01-10T12:22:36;7.15;;;2.85;;
28848;SDS011;15981;43.292;-2.888;2023-01-10T12:25:05;8.70;;;3.20;;
28848;SDS011;15981;43.292;-2.888;2023-01-10T12:27:33;8.18;;;3.00;;
28848;SDS011;15981;43.292;-2.888;2023-01-10T12:30:22;5.35;;;3.08;;
28848;SDS011;15981;43.292;-2.888;2023-01-10T12:32:47;7.22;;;3.13;;
28848;SDS011;15981;43.292;-2.888;2023-01-10T12:35:23;6.85;;;2.72;;
28848;SDS011;15981;43.292;-2.888;2023-01-10T12:37:52;52.00;;;34.90;;
28848;SDS011;15981;43.292;-2.888;2023-01-10T12:42:51;948.15;;;714.45;;
28848;SDS011;15981;43.292;-2.888;2023-01-10T12:45:48;811.15;;;633.58;;
28848;SDS011;15981;43.292;-2.888;2023-01-10T12:48:29;653.17;;;506.52;;
28848;SDS011;15981;43.292;-2.888;2023-01-10T12:51:00;571.83;;;438.98;;
28848;SDS011;15981;43.292;-2.888;2023-01-10T12:53:36;548.33;;;412.63;;
28848;SDS011;15981;43.292;-2.888;2023-01-10T12:56:04;557.13;;;425.48;;
28848;SDS011;15981;43.292;-2.888;2023-01-10T13:01:03;537.15;;;402.17;;
28848;SDS011;15981;43.292;-2.888;2023-01-10T13:03:31;508.05;;;382.58;;
28848;SDS011;15981;43.292;-2.888;2023-01-10T13:05:58;495.70;;;374.30;;
28848;SDS011;15981;43.292;-2.888;2023-01-10T13:08:25;494.35;;;376.65;;
28848;SDS011;15981;43.292;-2.888;2023-01-10T13:10:52;477.25;;;364.33;;
28848;SDS011;15981;43.292;-2.888;2023-01-10T13:18:31;435.42;;;334.30;;
28848;SDS011;15981;43.292;-2.888;2023-01-10T13:21:18;416.73;;;318.88;;
28848;SDS011;15981;43.292;-2.888;2023-01-10T13:23:46;407.75;;;312.73;;
28848;SDS011;15981;43.292;-2.888;2023-01-10T13:26:13;405.83;;;314.50;;
28848;SDS011;15981;43.292;-2.888;2023-01-10T13:28:39;375.80;;;286.95;;
28848;SDS011;15981;43.292;-2.888;2023-01-10T13:31:06;381.30;;;294.40;;
28848;SDS011;15981;43.292;-2.888;2023-01-10T13:33:36;398.02;;;306.02;;
28848;SDS011;15981;43.292;-2.888;2023-01-10T13:36:18;386.45;;;301.08;;
28848;SDS011;15981;43.292;-2.888;2023-01-10T13:38:49;379.58;;;289.15;;
28848;SDS011;15981;43.292;-2.888;2023-01-10T13:41:16;362.10;;;282.20;;
28848;SDS011;15981;43.292;-2.888;2023-01-10T13:44:13;342.98;;;273.38;;
28848;SDS011;15981;43.292;-2.888;2023-01-10T13:46:46;347.42;;;272.52;;
28848;SDS011;15981;43.292;-2.888;2023-01-10T13:51:39;340.00;;;264.98;;
28848;SDS011;15981;43.292;-2.888;2023-01-10T13:54:24;332.75;;;255.50;;
28848;SDS011;15981;43.292;-2.888;2023-01-10T13:56:51;326.08;;;252.05;;
28848;SDS011;15981;43.292;-2.888;2023-01-10T14:02:15;312.10;;;236.90;;
28848;SDS011;15981;43.292;-2.888;2023-01-10T14:04:57;296.48;;;229.18;;
28848;SDS011;15981;43.292;-2.888;2023-01-10T14:07:43;298.52;;;227.82;;
28848;SDS011;15981;43.292;-2.888;2023-01-10T14:12:54;305.48;;;231.10;;
28848;SDS011;15981;43.292;-2.888;2023-01-10T14:15:30;279.67;;;216.73;;
28848;SDS011;15981;43.292;-2.888;2023-01-10T14:18:06;270.25;;;209.48;;
28848;SDS011;15981;43.292;-2.888;2023-01-10T14:20:33;266.25;;;201.57;;
28848;SDS011;15981;43.292;-2.888;2023-01-10T14:23:07;262.75;;;198.57;;
28848;SDS011;15981;43.292;-2.888;2023-01-10T14:25:34;259.95;;;192.82;;
28848;SDS011;15981;43.292;-2.888;2023-01-10T14:28:00;259.65;;;199.30;;
28848;SDS011;15981;43.292;-2.888;2023-01-10T14:30:43;255.58;;;192.34;;
28848;SDS011;15981;43.292;-2.888;2023-01-10T14:33:14;253.57;;;195.35;;
28848;SDS011;15981;43.292;-2.888;2023-01-10T14:35:44;252.57;;;189.32;;
28848;SDS011;15981;43.292;-2.888;2023-01-10T14:38:30;256.88;;;188.27;;
28848;SDS011;15981;43.292;-2.888;2023-01-10T14:40:57;243.60;;;182.77;;
28848;SDS011;15981;43.292;-2.888;2023-01-10T14:43:26;240.80;;;181.98;;
28848;SDS011;15981;43.292;-2.888;2023-01-10T14:50:48;224.63;;;164.45;;
28848;SDS011;15981;43.292;-2.888;2023-01-10T14:53:26;235.90;;;169.35;;
28848;SDS011;15981;43.292;-2.888;2023-01-10T14:55:52;235.00;;;170.85;;
28848;SDS011;15981;43.292;-2.888;2023-01-10T14:58:18;222.75;;;164.13;;
28848;SDS011;15981;43.292;-2.888;2023-01-10T15:00:44;230.27;;;163.05;;
28848;SDS011;15981;43.292;-2.888;2023-01-10T15:03:16;223.05;;;160.77;;
28848;SDS011;15981;43.292;-2.888;2023-01-10T15:05:46;222.10;;;158.52;;
28848;SDS011;15981;43.292;-2.888;2023-01-10T15:08:16;210.93;;;151.88;;
28848;SDS011;15981;43.292;-2.888;2023-01-10T15:10:44;210.00;;;150.60;;
28848;SDS011;15981;43.292;-2.888;2023-01-10T15:13:12;207.60;;;146.10;;
28848;SDS011;15981;43.292;-2.888;2023-01-10T15:15:39;203.00;;;147.57;;
28848;SDS011;15981;43.292;-2.888;2023-01-10T15:18:39;213.63;;;144.02;;
28848;SDS011;15981;43.292;-2.888;2023-01-10T15:20:58;197.43;;;141.35;;
28848;SDS011;15981;43.292;-2.888;2023-01-10T15:23:24;192.38;;;141.88;;
28848;SDS011;15981;43.292;-2.888;2023-01-10T15:25:55;190.48;;;139.65;;
28848;SDS011;15981;43.292;-2.888;2023-01-10T15:28:23;188.57;;;137.10;;
28848;SDS011;15981;43.292;-2.888;2023-01-10T15:30:48;174.77;;;131.43;;
28848;SDS011;15981;43.292;-2.888;2023-01-10T15:33:16;174.90;;;129.95;;
28848;SDS011;15981;43.292;-2.888;2023-01-10T15:35:43;175.13;;;129.45;;
28848;SDS011;15981;43.292;-2.888;2023-01-10T15:38:15;172.60;;;126.78;;
28848;SDS011;15981;43.292;-2.888;2023-01-10T15:40:44;163.52;;;115.07;;
28848;SDS011;15981;43.292;-2.888;2023-01-10T15:45:45;159.30;;;115.65;;
28848;SDS011;15981;43.292;-2.888;2023-01-10T15:50:56;152.32;;;111.15;;
28848;SDS011;15981;43.292;-2.888;2023-01-10T15:56:09;150.38;;;109.55;;
28848;SDS011;15981;43.292;-2.888;2023-01-10T15:58:36;151.07;;;107.28;;
28848;SDS011;15981;43.292;-2.888;2023-01-10T16:01:02;142.55;;;105.65;;